sensor_id;sensor_type;location;lat;lon;timestamp;P1;durP1;ratioP1;P2;durP2;ratioP2
23732;SDS011;12047;53.450;-2.286;2023-04-15T00:02:51;15.45;;;10.35;;
23732;SDS011;12047;53.450;-2.286;2023-04-15T00:07:52;13.85;;;10.13;;
23732;SDS011;12047;53.450;-2.286;2023-04-15T00:12:59;10.48;;;8.55;;
23732;SDS011;12047;53.450;-2.286;2023-04-15T00:18:06;40.30;;;23.95;;
23732;SDS011;12047;53.450;-2.286;2023-04-15T00:28:52;34.00;;;20.02;;
23732;SDS011;12047;53.450;-2.286;2023-04-15T00:33:53;29.13;;;18.33;;
23732;SDS011;12047;53.450;-2.286;2023-04-15T00:38:56;39.70;;;19.73;;
23732;SDS011;12047;53.450;-2.286;2023-04-15T00:43:57;19.98;;;13.23;;
23732;SDS011;12047;53.450;-2.286;2023-04-15T00:49:01;13.85;;;10.30;;
23732;SDS011;12047;53.450;-2.286;2023-04-15T00:54:14;13.77;;;9.40;;
23732;SDS011;12047;53.450;-2.286;2023-04-15T01:04:55;16.73;;;11.57;;
23732;SDS011;12047;53.450;-2.286;2023-04-15T01:09:55;15.15;;;12.30;;
23732;SDS011;12047;53.450;-2.286;2023-04-15T01:14:58;17.08;;;12.02;;
23732;SDS011;12047;53.450;-2.286;2023-04-15T01:20:00;21.40;;;15.32;;
23732;SDS011;12047;53.450;-2.286;2023-04-15T01:25:04;19.17;;;15.02;;
23732;SDS011;12047;53.450;-2.286;2023-04-15T01:30:08;19.42;;;14.32;;
23732;SDS011;12047;53.450;-2.286;2023-04-15T01:35:10;12.60;;;9.50;;
23732;SDS011;12047;53.450;-2.286;2023-04-15T01:40:11;13.30;;;9.90;;
23732;SDS011;12047;53.450;-2.286;2023-04-15T01:45:16;17.08;;;11.95;;
23732;SDS011;12047;53.450;-2.286;2023-04-15T01:50:17;17.00;;;12.68;;
23732;SDS011;12047;53.450;-2.286;2023-04-15T01:55:18;15.05;;;11.80;;
23732;SDS011;12047;53.450;-2.286;2023-04-15T02:00:18;16.77;;;13.43;;
23732;SDS011;12047;53.450;-2.286;2023-04-15T02:05:26;24.30;;;16.60;;
23732;SDS011;12047;53.450;-2.286;2023-04-15T02:10:27;17.98;;;13.43;;
23732;SDS011;12047;53.450;-2.286;2023-04-15T02:15:33;21.30;;;15.18;;
23732;SDS011;12047;53.450;-2.286;2023-04-15T02:20:37;23.35;;;15.60;;
23732;SDS011;12047;53.450;-2.286;2023-04-15T02:25:49;19.92;;;14.93;;
23732;SDS011;12047;53.450;-2.286;2023-04-15T02:30:59;20.00;;;14.27;;
23732;SDS011;12047;53.450;-2.286;2023-04-15T02:36:05;15.50;;;11.50;;
23732;SDS011;12047;53.450;-2.286;2023-04-15T02:41:09;16.27;;;12.93;;
23732;SDS011;12047;53.450;-2.286;2023-04-15T02:46:09;22.33;;;16.48;;
23732;SDS011;12047;53.450;-2.286;2023-04-15T02:51:14;22.25;;;15.95;;
23732;SDS011;12047;53.450;-2.286;2023-04-15T02:56:31;24.55;;;16.75;;
23732;SDS011;12047;53.450;-2.286;2023-04-15T03:01:32;26.50;;;18.23;;
23732;SDS011;12047;53.450;-2.286;2023-04-15T03:06:33;30.65;;;21.38;;
23732;SDS011;12047;53.450;-2.286;2023-04-15T03:23:04;34.28;;;20.75;;
23732;SDS011;12047;53.450;-2.286;2023-04-15T03:28:10;26.85;;;17.50;;
23732;SDS011;12047;53.450;-2.286;2023-04-15T03:33:14;22.38;;;15.52;;
23732;SDS011;12047;53.450;-2.286;2023-04-15T03:49:10;25.33;;;18.50;;
23732;SDS011;12047;53.450;-2.286;2023-04-15T03:54:13;29.77;;;20.25;;
23732;SDS011;12047;53.450;-2.286;2023-04-15T03:59:14;29.83;;;19.80;;
23732;SDS011;12047;53.450;-2.286;2023-04-15T04:04:14;28.75;;;19.55;;
23732;SDS011;12047;53.450;-2.286;2023-04-15T04:09:15;28.00;;;18.95;;
23732;SDS011;12047;53.450;-2.286;2023-04-15T04:14:18;25.38;;;18.40;;
23732;SDS011;12047;53.450;-2.286;2023-04-15T04:19:22;29.02;;;20.00;;
23732;SDS011;12047;53.450;-2.286;2023-04-15T04:24:22;29.08;;;20.20;;
23732;SDS011;12047;53.450;-2.286;2023-04-15T04:29:23;30.77;;;21.05;;
23732;SDS011;12047;53.450;-2.286;2023-04-15T04:40:08;50.40;;;15.82;;
23732;SDS011;12047;53.450;-2.286;2023-04-15T04:45:15;21.48;;;14.93;;
23732;SDS011;12047;53.450;-2.286;2023-04-15T04:56:12;22.70;;;15.50;;
23732;SDS011;12047;53.450;-2.286;2023-04-15T05:01:19;21.65;;;15.80;;
23732;SDS011;12047;53.450;-2.286;2023-04-15T05:06:26;23.10;;;16.27;;
23732;SDS011;12047;53.450;-2.286;2023-04-15T05:17:26;26.20;;;17.88;;
23732;SDS011;12047;53.450;-2.286;2023-04-15T05:27:53;29.38;;;17.75;;
23732;SDS011;12047;53.450;-2.286;2023-04-15T05:32:53;24.08;;;16.77;;
23732;SDS011;12047;53.450;-2.286;2023-04-15T05:43:51;26.42;;;17.98;;
23732;SDS011;12047;53.450;-2.286;2023-04-15T05:54:32;32.17;;;20.92;;
23732;SDS011;12047;53.450;-2.286;2023-04-15T05:59:41;34.38;;;20.92;;
23732;SDS011;12047;53.450;-2.286;2023-04-15T06:04:45;41.25;;;23.38;;
23732;SDS011;12047;53.450;-2.286;2023-04-15T06:09:51;32.30;;;21.45;;
23732;SDS011;12047;53.450;-2.286;2023-04-15T06:14:52;37.95;;;23.02;;
23732;SDS011;12047;53.450;-2.286;2023-04-15T06:19:55;35.92;;;23.10;;
23732;SDS011;12047;53.450;-2.286;2023-04-15T06:24:56;35.03;;;22.50;;
23732;SDS011;12047;53.450;-2.286;2023-04-15T06:29:59;35.22;;;21.85;;
23732;SDS011;12047;53.450;-2.286;2023-04-15T06:35:09;33.90;;;21.70;;
23732;SDS011;12047;53.450;-2.286;2023-04-15T06:40:10;34.17;;;21.13;;
23732;SDS011;12047;53.450;-2.286;2023-04-15T06:45:11;25.77;;;19.02;;
23732;SDS011;12047;53.450;-2.286;2023-04-15T06:50:15;23.67;;;15.80;;
23732;SDS011;12047;53.450;-2.286;2023-04-15T06:55:15;24.52;;;17.33;;
23732;SDS011;12047;53.450;-2.286;2023-04-15T07:00:16;18.00;;;14.40;;
23732;SDS011;12047;53.450;-2.286;2023-04-15T07:05:17;18.05;;;14.38;;
23732;SDS011;12047;53.450;-2.286;2023-04-15T07:10:18;19.27;;;15.05;;
23732;SDS011;12047;53.450;-2.286;2023-04-15T07:15:19;15.38;;;12.70;;
23732;SDS011;12047;53.450;-2.286;2023-04-15T07:20:19;15.48;;;11.73;;
23732;SDS011;12047;53.450;-2.286;2023-04-15T07:25:20;16.60;;;11.40;;
23732;SDS011;12047;53.450;-2.286;2023-04-15T07:30:21;14.95;;;12.15;;
23732;SDS011;12047;53.450;-2.286;2023-04-15T07:35:22;15.75;;;12.35;;
23732;SDS011;12047;53.450;-2.286;2023-04-15T07:40:22;12.52;;;9.50;;
23732;SDS011;12047;53.450;-2.286;2023-04-15T07:45:23;13.77;;;9.00;;
23732;SDS011;12047;53.450;-2.286;2023-04-15T07:50:24;11.77;;;9.55;;
23732;SDS011;12047;53.450;-2.286;2023-04-15T07:55:27;15.95;;;9.82;;
23732;SDS011;12047;53.450;-2.286;2023-04-15T08:00:29;11.38;;;8.07;;
23732;SDS011;12047;53.450;-2.286;2023-04-15T08:05:31;11.15;;;7.10;;
23732;SDS011;12047;53.450;-2.286;2023-04-15T08:10:33;10.73;;;7.03;;
23732;SDS011;12047;53.450;-2.286;2023-04-15T08:15:34;9.73;;;7.15;;
23732;SDS011;12047;53.450;-2.286;2023-04-15T08:20:35;10.35;;;7.90;;
23732;SDS011;12047;53.450;-2.286;2023-04-15T08:25:36;9.50;;;7.38;;
23732;SDS011;12047;53.450;-2.286;2023-04-15T08:30:36;10.18;;;8.40;;
23732;SDS011;12047;53.450;-2.286;2023-04-15T08:35:37;9.82;;;7.45;;
23732;SDS011;12047;53.450;-2.286;2023-04-15T08:40:41;9.73;;;7.68;;
23732;SDS011;12047;53.450;-2.286;2023-04-15T08:45:43;9.48;;;6.90;;
23732;SDS011;12047;53.450;-2.286;2023-04-15T08:50:45;8.73;;;7.13;;
23732;SDS011;12047;53.450;-2.286;2023-04-15T08:55:49;8.77;;;6.38;;
23732;SDS011;12047;53.450;-2.286;2023-04-15T09:00:51;6.93;;;6.20;;
23732;SDS011;12047;53.450;-2.286;2023-04-15T09:05:52;10.65;;;6.05;;
23732;SDS011;12047;53.450;-2.286;2023-04-15T09:10:53;6.63;;;5.68;;
23732;SDS011;12047;53.450;-2.286;2023-04-15T09:15:54;8.73;;;6.03;;
23732;SDS011;12047;53.450;-2.286;2023-04-15T09:21:02;7.47;;;5.82;;
23732;SDS011;12047;53.450;-2.286;2023-04-15T09:26:05;9.50;;;6.00;;
23732;SDS011;12047;53.450;-2.286;2023-04-15T09:31:06;6.90;;;5.43;;
23732;SDS011;12047;53.450;-2.286;2023-04-15T09:36:06;8.20;;;5.13;;
23732;SDS011;12047;53.450;-2.286;2023-04-15T09:41:15;6.85;;;5.88;;
23732;SDS011;12047;53.450;-2.286;2023-04-15T09:46:18;8.80;;;5.15;;
23732;SDS011;12047;53.450;-2.286;2023-04-15T09:51:19;10.48;;;5.38;;
23732;SDS011;12047;53.450;-2.286;2023-04-15T09:56:35;6.60;;;5.85;;
23732;SDS011;12047;53.450;-2.286;2023-04-15T10:01:41;8.75;;;5.00;;
23732;SDS011;12047;53.450;-2.286;2023-04-15T10:06:42;6.13;;;4.97;;
23732;SDS011;12047;53.450;-2.286;2023-04-15T10:11:42;7.15;;;4.55;;
23732;SDS011;12047;53.450;-2.286;2023-04-15T10:16:45;7.65;;;4.07;;
23732;SDS011;12047;53.450;-2.286;2023-04-15T10:21:48;8.80;;;4.55;;
23732;SDS011;12047;53.450;-2.286;2023-04-15T10:26:49;6.03;;;3.95;;
23732;SDS011;12047;53.450;-2.286;2023-04-15T10:31:53;6.80;;;3.22;;
23732;SDS011;12047;53.450;-2.286;2023-04-15T10:36:56;5.88;;;3.05;;
23732;SDS011;12047;53.450;-2.286;2023-04-15T10:42:33;4.63;;;2.67;;
23732;SDS011;12047;53.450;-2.286;2023-04-15T10:47:33;5.90;;;2.70;;
23732;SDS011;12047;53.450;-2.286;2023-04-15T10:52:34;4.68;;;2.83;;
23732;SDS011;12047;53.450;-2.286;2023-04-15T10:57:36;8.25;;;3.10;;
23732;SDS011;12047;53.450;-2.286;2023-04-15T11:02:52;3.15;;;2.17;;
23732;SDS011;12047;53.450;-2.286;2023-04-15T11:07:55;7.35;;;2.75;;
23732;SDS011;12047;53.450;-2.286;2023-04-15T11:13:00;6.30;;;3.15;;
23732;SDS011;12047;53.450;-2.286;2023-04-15T11:18:15;5.13;;;3.20;;
23732;SDS011;12047;53.450;-2.286;2023-04-15T11:23:28;8.60;;;3.22;;
23732;SDS011;12047;53.450;-2.286;2023-04-15T11:28:37;5.22;;;3.15;;
23732;SDS011;12047;53.450;-2.286;2023-04-15T11:33:52;6.45;;;2.83;;
23732;SDS011;12047;53.450;-2.286;2023-04-15T11:38:58;5.43;;;2.75;;
23732;SDS011;12047;53.450;-2.286;2023-04-15T11:43:58;8.70;;;2.95;;
23732;SDS011;12047;53.450;-2.286;2023-04-15T11:48:59;4.80;;;2.65;;
23732;SDS011;12047;53.450;-2.286;2023-04-15T11:54:00;3.85;;;3.00;;
23732;SDS011;12047;53.450;-2.286;2023-04-15T11:59:01;5.32;;;2.80;;
23732;SDS011;12047;53.450;-2.286;2023-04-15T12:04:02;6.05;;;3.10;;
23732;SDS011;12047;53.450;-2.286;2023-04-15T12:14:31;5.10;;;2.30;;
23732;SDS011;12047;53.450;-2.286;2023-04-15T12:19:36;5.68;;;2.28;;
23732;SDS011;12047;53.450;-2.286;2023-04-15T12:24:39;5.90;;;2.10;;
23732;SDS011;12047;53.450;-2.286;2023-04-15T12:29:42;2.33;;;1.75;;
23732;SDS011;12047;53.450;-2.286;2023-04-15T12:34:49;4.35;;;2.97;;
23732;SDS011;12047;53.450;-2.286;2023-04-15T12:39:50;6.72;;;3.25;;
23732;SDS011;12047;53.450;-2.286;2023-04-15T12:44:53;5.93;;;3.75;;
23732;SDS011;12047;53.450;-2.286;2023-04-15T12:49:53;4.70;;;2.88;;
23732;SDS011;12047;53.450;-2.286;2023-04-15T12:54:54;4.05;;;2.90;;
23732;SDS011;12047;53.450;-2.286;2023-04-15T12:59:55;3.78;;;3.10;;
23732;SDS011;12047;53.450;-2.286;2023-04-15T13:04:55;4.45;;;2.97;;
23732;SDS011;12047;53.450;-2.286;2023-04-15T13:09:56;4.65;;;2.90;;
23732;SDS011;12047;53.450;-2.286;2023-04-15T13:14:56;4.38;;;2.20;;
23732;SDS011;12047;53.450;-2.286;2023-04-15T13:19:57;6.10;;;2.70;;
23732;SDS011;12047;53.450;-2.286;2023-04-15T13:25:00;6.35;;;2.42;;
23732;SDS011;12047;53.450;-2.286;2023-04-15T13:30:01;5.88;;;2.00;;
23732;SDS011;12047;53.450;-2.286;2023-04-15T13:35:12;6.00;;;3.53;;
23732;SDS011;12047;53.450;-2.286;2023-04-15T13:40:13;3.95;;;2.40;;
23732;SDS011;12047;53.450;-2.286;2023-04-15T13:45:14;5.53;;;2.60;;
23732;SDS011;12047;53.450;-2.286;2023-04-15T13:50:15;3.83;;;2.58;;
23732;SDS011;12047;53.450;-2.286;2023-04-15T13:55:15;4.28;;;2.58;;
23732;SDS011;12047;53.450;-2.286;2023-04-15T14:00:16;3.55;;;2.50;;
23732;SDS011;12047;53.450;-2.286;2023-04-15T14:05:17;3.80;;;2.28;;
23732;SDS011;12047;53.450;-2.286;2023-04-15T14:10:17;3.92;;;2.35;;
23732;SDS011;12047;53.450;-2.286;2023-04-15T14:15:21;4.32;;;2.20;;
23732;SDS011;12047;53.450;-2.286;2023-04-15T14:20:37;3.28;;;2.00;;
23732;SDS011;12047;53.450;-2.286;2023-04-15T14:25:37;2.95;;;1.75;;
23732;SDS011;12047;53.450;-2.286;2023-04-15T14:30:40;3.58;;;2.05;;
23732;SDS011;12047;53.450;-2.286;2023-04-15T14:35:44;3.53;;;2.10;;
23732;SDS011;12047;53.450;-2.286;2023-04-15T14:40:45;3.72;;;2.00;;
23732;SDS011;12047;53.450;-2.286;2023-04-15T14:45:51;4.72;;;1.90;;
23732;SDS011;12047;53.450;-2.286;2023-04-15T14:51:23;2.17;;;1.60;;
23732;SDS011;12047;53.450;-2.286;2023-04-15T14:56:41;3.10;;;1.55;;
23732;SDS011;12047;53.450;-2.286;2023-04-15T15:07:43;6.85;;;2.10;;
23732;SDS011;12047;53.450;-2.286;2023-04-15T15:12:43;2.85;;;1.60;;
23732;SDS011;12047;53.450;-2.286;2023-04-15T15:17:44;3.50;;;1.70;;
23732;SDS011;12047;53.450;-2.286;2023-04-15T15:29:10;3.15;;;1.70;;
23732;SDS011;12047;53.450;-2.286;2023-04-15T15:40:08;2.50;;;1.60;;
23732;SDS011;12047;53.450;-2.286;2023-04-15T15:51:06;4.03;;;1.95;;
23732;SDS011;12047;53.450;-2.286;2023-04-15T15:56:10;5.50;;;1.73;;
23732;SDS011;12047;53.450;-2.286;2023-04-15T16:07:18;2.53;;;1.50;;
23732;SDS011;12047;53.450;-2.286;2023-04-15T16:12:40;7.63;;;2.08;;
23732;SDS011;12047;53.450;-2.286;2023-04-15T16:17:41;3.20;;;1.75;;
23732;SDS011;12047;53.450;-2.286;2023-04-15T16:23:00;2.75;;;1.60;;
23732;SDS011;12047;53.450;-2.286;2023-04-15T16:28:24;5.10;;;1.90;;
23732;SDS011;12047;53.450;-2.286;2023-04-15T16:45:21;4.07;;;2.75;;
23732;SDS011;12047;53.450;-2.286;2023-04-15T16:50:22;5.18;;;3.42;;
23732;SDS011;12047;53.450;-2.286;2023-04-15T16:55:34;5.25;;;2.60;;
23732;SDS011;12047;53.450;-2.286;2023-04-15T17:00:42;3.08;;;2.00;;
23732;SDS011;12047;53.450;-2.286;2023-04-15T17:05:42;3.83;;;1.88;;
23732;SDS011;12047;53.450;-2.286;2023-04-15T17:10:52;3.90;;;2.38;;
23732;SDS011;12047;53.450;-2.286;2023-04-15T17:16:04;4.47;;;1.98;;
23732;SDS011;12047;53.450;-2.286;2023-04-15T17:21:07;6.10;;;2.67;;
23732;SDS011;12047;53.450;-2.286;2023-04-15T17:26:26;5.40;;;3.05;;
23732;SDS011;12047;53.450;-2.286;2023-04-15T17:31:30;5.07;;;2.90;;
23732;SDS011;12047;53.450;-2.286;2023-04-15T17:36:33;4.90;;;2.92;;
23732;SDS011;12047;53.450;-2.286;2023-04-15T17:41:34;4.90;;;2.50;;
23732;SDS011;12047;53.450;-2.286;2023-04-15T17:46:35;5.22;;;2.90;;
23732;SDS011;12047;53.450;-2.286;2023-04-15T17:51:35;4.90;;;2.65;;
23732;SDS011;12047;53.450;-2.286;2023-04-15T17:56:49;4.90;;;2.35;;
23732;SDS011;12047;53.450;-2.286;2023-04-15T18:01:50;3.17;;;2.30;;
23732;SDS011;12047;53.450;-2.286;2023-04-15T18:06:51;3.53;;;2.20;;
23732;SDS011;12047;53.450;-2.286;2023-04-15T18:11:51;7.88;;;2.67;;
23732;SDS011;12047;53.450;-2.286;2023-04-15T18:16:53;5.65;;;2.80;;
23732;SDS011;12047;53.450;-2.286;2023-04-15T18:21:57;5.18;;;2.30;;
23732;SDS011;12047;53.450;-2.286;2023-04-15T18:26:58;5.20;;;2.40;;
23732;SDS011;12047;53.450;-2.286;2023-04-15T18:32:01;6.15;;;2.78;;
23732;SDS011;12047;53.450;-2.286;2023-04-15T18:37:02;3.67;;;2.55;;
23732;SDS011;12047;53.450;-2.286;2023-04-15T18:42:05;3.08;;;2.25;;
23732;SDS011;12047;53.450;-2.286;2023-04-15T18:47:08;4.70;;;3.03;;
23732;SDS011;12047;53.450;-2.286;2023-04-15T18:52:09;7.45;;;3.13;;
23732;SDS011;12047;53.450;-2.286;2023-04-15T18:57:10;7.20;;;3.63;;
23732;SDS011;12047;53.450;-2.286;2023-04-15T19:02:13;5.50;;;3.20;;
23732;SDS011;12047;53.450;-2.286;2023-04-15T19:07:13;7.00;;;2.95;;
23732;SDS011;12047;53.450;-2.286;2023-04-15T19:12:14;6.93;;;4.00;;
23732;SDS011;12047;53.450;-2.286;2023-04-15T19:17:14;6.95;;;3.65;;
23732;SDS011;12047;53.450;-2.286;2023-04-15T19:22:15;4.35;;;2.78;;
23732;SDS011;12047;53.450;-2.286;2023-04-15T19:27:16;5.50;;;3.00;;
23732;SDS011;12047;53.450;-2.286;2023-04-15T19:32:16;11.05;;;6.55;;
23732;SDS011;12047;53.450;-2.286;2023-04-15T19:37:17;13.82;;;8.65;;
23732;SDS011;12047;53.450;-2.286;2023-04-15T19:42:18;14.18;;;8.32;;
23732;SDS011;12047;53.450;-2.286;2023-04-15T19:47:18;23.60;;;14.20;;
23732;SDS011;12047;53.450;-2.286;2023-04-15T19:52:19;18.27;;;12.30;;
23732;SDS011;12047;53.450;-2.286;2023-04-15T19:57:21;19.77;;;10.93;;
23732;SDS011;12047;53.450;-2.286;2023-04-15T20:02:21;14.98;;;10.40;;
23732;SDS011;12047;53.450;-2.286;2023-04-15T20:07:22;17.25;;;9.65;;
23732;SDS011;12047;53.450;-2.286;2023-04-15T20:12:22;10.68;;;7.38;;
23732;SDS011;12047;53.450;-2.286;2023-04-15T20:17:25;13.43;;;7.82;;
23732;SDS011;12047;53.450;-2.286;2023-04-15T20:22:25;12.85;;;7.78;;
23732;SDS011;12047;53.450;-2.286;2023-04-15T20:27:26;18.80;;;9.80;;
23732;SDS011;12047;53.450;-2.286;2023-04-15T20:32:27;14.50;;;10.00;;
23732;SDS011;12047;53.450;-2.286;2023-04-15T20:37:31;11.45;;;7.70;;
23732;SDS011;12047;53.450;-2.286;2023-04-15T20:42:34;12.50;;;7.45;;
23732;SDS011;12047;53.450;-2.286;2023-04-15T20:47:35;11.82;;;7.05;;
23732;SDS011;12047;53.450;-2.286;2023-04-15T20:52:38;9.48;;;6.93;;
23732;SDS011;12047;53.450;-2.286;2023-04-15T20:57:39;9.55;;;7.18;;
23732;SDS011;12047;53.450;-2.286;2023-04-15T21:02:39;11.45;;;6.55;;
23732;SDS011;12047;53.450;-2.286;2023-04-15T21:07:43;13.60;;;7.95;;
23732;SDS011;12047;53.450;-2.286;2023-04-15T21:12:43;13.68;;;8.88;;
23732;SDS011;12047;53.450;-2.286;2023-04-15T21:17:44;12.98;;;9.13;;
23732;SDS011;12047;53.450;-2.286;2023-04-15T21:22:44;22.75;;;14.15;;
23732;SDS011;12047;53.450;-2.286;2023-04-15T21:27:45;17.88;;;10.55;;
23732;SDS011;12047;53.450;-2.286;2023-04-15T21:32:48;13.77;;;9.65;;
23732;SDS011;12047;53.450;-2.286;2023-04-15T21:37:51;17.20;;;11.20;;
23732;SDS011;12047;53.450;-2.286;2023-04-15T21:42:52;17.90;;;11.85;;
23732;SDS011;12047;53.450;-2.286;2023-04-15T21:47:52;17.38;;;10.32;;
23732;SDS011;12047;53.450;-2.286;2023-04-15T21:52:53;14.95;;;10.10;;
23732;SDS011;12047;53.450;-2.286;2023-04-15T21:57:53;15.80;;;10.57;;
23732;SDS011;12047;53.450;-2.286;2023-04-15T22:02:54;14.80;;;10.63;;
23732;SDS011;12047;53.450;-2.286;2023-04-15T22:07:55;16.45;;;11.75;;
23732;SDS011;12047;53.450;-2.286;2023-04-15T22:12:57;14.88;;;10.35;;
23732;SDS011;12047;53.450;-2.286;2023-04-15T22:18:01;13.93;;;10.02;;
23732;SDS011;12047;53.450;-2.286;2023-04-15T22:23:03;16.65;;;9.82;;
23732;SDS011;12047;53.450;-2.286;2023-04-15T22:28:08;12.73;;;9.30;;
23732;SDS011;12047;53.450;-2.286;2023-04-15T22:33:09;16.80;;;9.52;;
23732;SDS011;12047;53.450;-2.286;2023-04-15T22:38:10;16.58;;;10.35;;
23732;SDS011;12047;53.450;-2.286;2023-04-15T22:43:11;15.88;;;10.23;;
23732;SDS011;12047;53.450;-2.286;2023-04-15T22:48:12;13.57;;;9.98;;
23732;SDS011;12047;53.450;-2.286;2023-04-15T22:53:13;15.15;;;9.73;;
23732;SDS011;12047;53.450;-2.286;2023-04-15T22:58:15;19.25;;;10.50;;
23732;SDS011;12047;53.450;-2.286;2023-04-15T23:03:17;18.45;;;11.45;;
23732;SDS011;12047;53.450;-2.286;2023-04-15T23:08:17;16.08;;;9.52;;
23732;SDS011;12047;53.450;-2.286;2023-04-15T23:13:18;13.65;;;9.63;;
23732;SDS011;12047;53.450;-2.286;2023-04-15T23:18:18;14.60;;;9.32;;
23732;SDS011;12047;53.450;-2.286;2023-04-15T23:23:19;14.05;;;9.15;;
23732;SDS011;12047;53.450;-2.286;2023-04-15T23:28:19;16.45;;;9.88;;
23732;SDS011;12047;53.450;-2.286;2023-04-15T23:33:20;13.43;;;8.73;;
23732;SDS011;12047;53.450;-2.286;2023-04-15T23:38:20;14.88;;;9.23;;
23732;SDS011;12047;53.450;-2.286;2023-04-15T23:43:21;14.88;;;9.35;;
23732;SDS011;12047;53.450;-2.286;2023-04-15T23:48:22;13.13;;;9.70;;
23732;SDS011;12047;53.450;-2.286;2023-04-15T23:53:30;14.55;;;9.40;;
23732;SDS011;12047;53.450;-2.286;2023-04-15T23:58:30;14.75;;;9.93;;
